sensor_id;sensor_type;location;lat;lon;timestamp;temperature;humidity
20560;DHT22;10438;51.454;6.718;2023-09-08T00:00:50;19.50;99.90
20560;DHT22;10438;51.454;6.718;2023-09-08T00:03:16;19.50;99.90
20560;DHT22;10438;51.454;6.718;2023-09-08T00:05:41;19.40;99.90
20560;DHT22;10438;51.454;6.718;2023-09-08T00:08:07;19.40;99.90
20560;DHT22;10438;51.454;6.718;2023-09-08T00:10:33;19.40;99.90
20560;DHT22;10438;51.454;6.718;2023-09-08T00:12:58;19.40;99.90
20560;DHT22;10438;51.454;6.718;2023-09-08T00:15:24;19.40;99.90
20560;DHT22;10438;51.454;6.718;2023-09-08T00:17:49;19.50;99.90
20560;DHT22;10438;51.454;6.718;2023-09-08T00:20:15;19.50;99.90
20560;DHT22;10438;51.454;6.718;2023-09-08T00:22:40;19.50;99.90
20560;DHT22;10438;51.454;6.718;2023-09-08T00:25:06;19.50;99.90
20560;DHT22;10438;51.454;6.718;2023-09-08T00:27:32;19.50;99.90
20560;DHT22;10438;51.454;6.718;2023-09-08T00:29:58;19.40;99.90
20560;DHT22;10438;51.454;6.718;2023-09-08T00:32:23;19.40;99.90
20560;DHT22;10438;51.454;6.718;2023-09-08T00:34:49;19.40;99.90
20560;DHT22;10438;51.454;6.718;2023-09-08T00:37:14;19.40;99.90
20560;DHT22;10438;51.454;6.718;2023-09-08T00:39:40;19.40;99.90
20560;DHT22;10438;51.454;6.718;2023-09-08T00:42:06;19.40;99.90
20560;DHT22;10438;51.454;6.718;2023-09-08T00:44:32;19.30;99.90
20560;DHT22;10438;51.454;6.718;2023-09-08T00:46:58;19.20;99.90
20560;DHT22;10438;51.454;6.718;2023-09-08T00:49:24;19.20;99.90
20560;DHT22;10438;51.454;6.718;2023-09-08T00:51:49;19.20;99.90
20560;DHT22;10438;51.454;6.718;2023-09-08T00:54:16;19.10;99.90
20560;DHT22;10438;51.454;6.718;2023-09-08T00:56:42;19.10;99.90
20560;DHT22;10438;51.454;6.718;2023-09-08T00:59:08;19.00;99.90
20560;DHT22;10438;51.454;6.718;2023-09-08T01:01:34;19.00;99.90
20560;DHT22;10438;51.454;6.718;2023-09-08T01:04:01;18.90;99.90
20560;DHT22;10438;51.454;6.718;2023-09-08T01:06:27;18.90;99.90
20560;DHT22;10438;51.454;6.718;2023-09-08T01:08:53;18.80;99.90
20560;DHT22;10438;51.454;6.718;2023-09-08T01:11:21;18.80;99.90
20560;DHT22;10438;51.454;6.718;2023-09-08T01:13:47;18.70;99.90
20560;DHT22;10438;51.454;6.718;2023-09-08T01:16:12;18.70;99.90
20560;DHT22;10438;51.454;6.718;2023-09-08T01:18:38;18.80;99.90
20560;DHT22;10438;51.454;6.718;2023-09-08T01:24:11;18.80;99.90
20560;DHT22;10438;51.454;6.718;2023-09-08T01:26:41;18.80;99.90
20560;DHT22;10438;51.454;6.718;2023-09-08T01:29:09;18.80;99.90
20560;DHT22;10438;51.454;6.718;2023-09-08T01:31:36;18.80;99.90
20560;DHT22;10438;51.454;6.718;2023-09-08T01:34:03;18.70;99.90
20560;DHT22;10438;51.454;6.718;2023-09-08T01:36:35;18.70;99.90
20560;DHT22;10438;51.454;6.718;2023-09-08T01:39:01;18.70;99.90
20560;DHT22;10438;51.454;6.718;2023-09-08T01:41:28;18.60;99.90
20560;DHT22;10438;51.454;6.718;2023-09-08T01:43:53;18.60;99.90
20560;DHT22;10438;51.454;6.718;2023-09-08T01:46:20;18.60;99.90
20560;DHT22;10438;51.454;6.718;2023-09-08T01:48:45;18.50;99.90
20560;DHT22;10438;51.454;6.718;2023-09-08T01:51:11;18.50;99.90
20560;DHT22;10438;51.454;6.718;2023-09-08T01:53:36;18.40;99.90
20560;DHT22;10438;51.454;6.718;2023-09-08T01:56:02;18.40;99.90
20560;DHT22;10438;51.454;6.718;2023-09-08T01:58:27;18.30;99.90
20560;DHT22;10438;51.454;6.718;2023-09-08T02:00:53;18.40;99.90
20560;DHT22;10438;51.454;6.718;2023-09-08T02:03:19;18.30;99.90
20560;DHT22;10438;51.454;6.718;2023-09-08T02:05:45;18.30;99.90
20560;DHT22;10438;51.454;6.718;2023-09-08T02:08:10;18.30;99.90
20560;DHT22;10438;51.454;6.718;2023-09-08T02:10:39;18.20;99.90
20560;DHT22;10438;51.454;6.718;2023-09-08T02:13:05;18.20;99.90
20560;DHT22;10438;51.454;6.718;2023-09-08T02:15:31;18.20;99.90
20560;DHT22;10438;51.454;6.718;2023-09-08T02:17:56;18.10;99.90
20560;DHT22;10438;51.454;6.718;2023-09-08T02:20:22;18.10;99.90
20560;DHT22;10438;51.454;6.718;2023-09-08T02:22:53;18.10;99.90
20560;DHT22;10438;51.454;6.718;2023-09-08T02:25:18;18.00;99.90
20560;DHT22;10438;51.454;6.718;2023-09-08T02:27:44;18.00;99.90
20560;DHT22;10438;51.454;6.718;2023-09-08T02:30:09;18.00;99.90
20560;DHT22;10438;51.454;6.718;2023-09-08T02:32:35;17.90;99.90
20560;DHT22;10438;51.454;6.718;2023-09-08T02:35:01;17.90;99.90
20560;DHT22;10438;51.454;6.718;2023-09-08T02:37:26;17.90;99.90
20560;DHT22;10438;51.454;6.718;2023-09-08T02:39:52;17.90;99.90
20560;DHT22;10438;51.454;6.718;2023-09-08T02:42:17;17.90;99.90
20560;DHT22;10438;51.454;6.718;2023-09-08T02:44:43;17.90;99.90
20560;DHT22;10438;51.454;6.718;2023-09-08T02:47:08;17.80;99.90
20560;DHT22;10438;51.454;6.718;2023-09-08T02:49:35;17.80;99.90
20560;DHT22;10438;51.454;6.718;2023-09-08T02:52:01;17.80;99.90
20560;DHT22;10438;51.454;6.718;2023-09-08T02:54:26;17.80;99.90
20560;DHT22;10438;51.454;6.718;2023-09-08T02:56:52;17.70;99.90
20560;DHT22;10438;51.454;6.718;2023-09-08T02:59:17;17.70;99.90
20560;DHT22;10438;51.454;6.718;2023-09-08T03:01:43;17.70;99.90
20560;DHT22;10438;51.454;6.718;2023-09-08T03:04:08;17.70;99.90
20560;DHT22;10438;51.454;6.718;2023-09-08T03:06:34;17.70;99.90
20560;DHT22;10438;51.454;6.718;2023-09-08T03:09:00;17.60;99.90
20560;DHT22;10438;51.454;6.718;2023-09-08T03:11:25;17.60;99.90
20560;DHT22;10438;51.454;6.718;2023-09-08T03:13:51;17.60;99.90
20560;DHT22;10438;51.454;6.718;2023-09-08T03:16:16;17.60;99.90
20560;DHT22;10438;51.454;6.718;2023-09-08T03:18:42;17.60;99.90
20560;DHT22;10438;51.454;6.718;2023-09-08T03:21:08;17.50;99.90
20560;DHT22;10438;51.454;6.718;2023-09-08T03:23:37;17.50;99.90
20560;DHT22;10438;51.454;6.718;2023-09-08T03:26:03;17.50;99.90
20560;DHT22;10438;51.454;6.718;2023-09-08T03:28:29;17.50;99.90
20560;DHT22;10438;51.454;6.718;2023-09-08T03:30:54;17.50;99.90
20560;DHT22;10438;51.454;6.718;2023-09-08T03:33:20;17.40;99.90
20560;DHT22;10438;51.454;6.718;2023-09-08T03:35:45;17.40;99.90
20560;DHT22;10438;51.454;6.718;2023-09-08T03:38:11;17.40;99.90
20560;DHT22;10438;51.454;6.718;2023-09-08T03:40:36;17.40;99.90
20560;DHT22;10438;51.454;6.718;2023-09-08T03:43:03;17.40;99.90
20560;DHT22;10438;51.454;6.718;2023-09-08T03:45:29;17.30;99.90
20560;DHT22;10438;51.454;6.718;2023-09-08T03:47:54;17.30;99.90
20560;DHT22;10438;51.454;6.718;2023-09-08T03:50:20;17.30;99.90
20560;DHT22;10438;51.454;6.718;2023-09-08T03:52:45;17.30;99.90
20560;DHT22;10438;51.454;6.718;2023-09-08T03:55:11;17.20;99.90
20560;DHT22;10438;51.454;6.718;2023-09-08T03:57:37;17.30;99.90
20560;DHT22;10438;51.454;6.718;2023-09-08T04:00:03;17.20;99.90
20560;DHT22;10438;51.454;6.718;2023-09-08T04:02:30;17.20;99.90
20560;DHT22;10438;51.454;6.718;2023-09-08T04:04:56;17.20;99.90
20560;DHT22;10438;51.454;6.718;2023-09-08T04:07:21;17.20;99.90
20560;DHT22;10438;51.454;6.718;2023-09-08T04:09:47;17.20;99.90
20560;DHT22;10438;51.454;6.718;2023-09-08T04:12:12;17.20;99.90
20560;DHT22;10438;51.454;6.718;2023-09-08T04:14:38;17.10;99.90
20560;DHT22;10438;51.454;6.718;2023-09-08T04:17:03;17.10;99.90
20560;DHT22;10438;51.454;6.718;2023-09-08T04:19:29;17.10;99.90
20560;DHT22;10438;51.454;6.718;2023-09-08T04:21:54;17.10;99.90
20560;DHT22;10438;51.454;6.718;2023-09-08T04:24:20;17.00;99.90
20560;DHT22;10438;51.454;6.718;2023-09-08T04:26:45;17.00;99.90
20560;DHT22;10438;51.454;6.718;2023-09-08T04:29:11;17.00;99.90
20560;DHT22;10438;51.454;6.718;2023-09-08T04:31:36;16.90;99.90
20560;DHT22;10438;51.454;6.718;2023-09-08T04:34:02;16.90;99.90
20560;DHT22;10438;51.454;6.718;2023-09-08T04:36:28;16.90;99.90
20560;DHT22;10438;51.454;6.718;2023-09-08T04:38:55;16.90;99.90
20560;DHT22;10438;51.454;6.718;2023-09-08T04:41:21;16.90;99.90
20560;DHT22;10438;51.454;6.718;2023-09-08T04:43:47;16.80;99.90
20560;DHT22;10438;51.454;6.718;2023-09-08T04:46:12;16.80;99.90
20560;DHT22;10438;51.454;6.718;2023-09-08T04:48:38;16.80;99.90
20560;DHT22;10438;51.454;6.718;2023-09-08T04:51:03;16.90;99.90
20560;DHT22;10438;51.454;6.718;2023-09-08T04:53:29;16.80;99.90
20560;DHT22;10438;51.454;6.718;2023-09-08T04:55:54;16.80;99.90
20560;DHT22;10438;51.454;6.718;2023-09-08T04:58:20;16.90;99.90
20560;DHT22;10438;51.454;6.718;2023-09-08T05:00:45;16.90;99.90
20560;DHT22;10438;51.454;6.718;2023-09-08T05:03:11;16.90;99.90
20560;DHT22;10438;51.454;6.718;2023-09-08T05:05:36;16.90;99.90
20560;DHT22;10438;51.454;6.718;2023-09-08T05:08:02;16.90;99.90
20560;DHT22;10438;51.454;6.718;2023-09-08T05:10:27;16.90;99.90
20560;DHT22;10438;51.454;6.718;2023-09-08T05:12:53;16.90;99.90
20560;DHT22;10438;51.454;6.718;2023-09-08T05:15:18;17.00;99.90
20560;DHT22;10438;51.454;6.718;2023-09-08T05:17:46;17.00;99.90
20560;DHT22;10438;51.454;6.718;2023-09-08T05:20:12;17.00;99.90
20560;DHT22;10438;51.454;6.718;2023-09-08T05:22:37;17.00;99.90
20560;DHT22;10438;51.454;6.718;2023-09-08T05:25:03;17.00;99.90
20560;DHT22;10438;51.454;6.718;2023-09-08T05:27:29;17.00;99.90
20560;DHT22;10438;51.454;6.718;2023-09-08T05:29:55;17.00;99.90
20560;DHT22;10438;51.454;6.718;2023-09-08T05:32:20;17.00;99.90
20560;DHT22;10438;51.454;6.718;2023-09-08T05:34:46;17.00;99.90
20560;DHT22;10438;51.454;6.718;2023-09-08T05:37:11;17.10;99.90
20560;DHT22;10438;51.454;6.718;2023-09-08T05:39:37;17.10;99.90
20560;DHT22;10438;51.454;6.718;2023-09-08T05:42:03;17.10;99.90
20560;DHT22;10438;51.454;6.718;2023-09-08T05:44:28;17.20;99.90
20560;DHT22;10438;51.454;6.718;2023-09-08T05:46:54;17.20;99.90
20560;DHT22;10438;51.454;6.718;2023-09-08T05:49:19;17.20;99.90
20560;DHT22;10438;51.454;6.718;2023-09-08T05:51:45;17.20;99.90
20560;DHT22;10438;51.454;6.718;2023-09-08T05:54:10;17.30;99.90
20560;DHT22;10438;51.454;6.718;2023-09-08T05:56:37;17.30;99.90
20560;DHT22;10438;51.454;6.718;2023-09-08T05:59:03;17.30;99.90
20560;DHT22;10438;51.454;6.718;2023-09-08T06:01:30;17.40;99.90
20560;DHT22;10438;51.454;6.718;2023-09-08T06:03:55;17.40;99.90
20560;DHT22;10438;51.454;6.718;2023-09-08T06:06:21;17.40;99.90
20560;DHT22;10438;51.454;6.718;2023-09-08T06:08:47;17.50;99.90
20560;DHT22;10438;51.454;6.718;2023-09-08T06:11:12;17.50;99.90
20560;DHT22;10438;51.454;6.718;2023-09-08T06:13:38;17.60;99.90
20560;DHT22;10438;51.454;6.718;2023-09-08T06:16:04;17.70;99.90
20560;DHT22;10438;51.454;6.718;2023-09-08T06:18:29;17.80;99.90
20560;DHT22;10438;51.454;6.718;2023-09-08T06:20:59;17.80;99.90
20560;DHT22;10438;51.454;6.718;2023-09-08T06:23:24;17.90;99.90
20560;DHT22;10438;51.454;6.718;2023-09-08T06:25:50;17.90;99.90
20560;DHT22;10438;51.454;6.718;2023-09-08T06:28:16;18.00;99.90
20560;DHT22;10438;51.454;6.718;2023-09-08T06:30:41;18.10;99.90
20560;DHT22;10438;51.454;6.718;2023-09-08T06:33:10;18.10;99.90
20560;DHT22;10438;51.454;6.718;2023-09-08T06:35:35;18.20;99.90
20560;DHT22;10438;51.454;6.718;2023-09-08T06:38:01;18.30;99.90
20560;DHT22;10438;51.454;6.718;2023-09-08T06:40:29;18.40;99.90
20560;DHT22;10438;51.454;6.718;2023-09-08T06:42:54;18.50;99.90
20560;DHT22;10438;51.454;6.718;2023-09-08T06:45:20;18.50;99.90
20560;DHT22;10438;51.454;6.718;2023-09-08T06:47:46;18.60;99.90
20560;DHT22;10438;51.454;6.718;2023-09-08T06:50:11;18.70;99.90
20560;DHT22;10438;51.454;6.718;2023-09-08T06:52:37;18.80;99.90
20560;DHT22;10438;51.454;6.718;2023-09-08T06:55:03;18.90;99.90
20560;DHT22;10438;51.454;6.718;2023-09-08T06:57:28;18.90;99.90
20560;DHT22;10438;51.454;6.718;2023-09-08T06:59:54;19.00;99.90
20560;DHT22;10438;51.454;6.718;2023-09-08T07:02:19;19.10;99.90
20560;DHT22;10438;51.454;6.718;2023-09-08T07:04:45;19.20;99.90
20560;DHT22;10438;51.454;6.718;2023-09-08T07:07:10;19.30;99.90
20560;DHT22;10438;51.454;6.718;2023-09-08T07:09:36;19.40;99.90
20560;DHT22;10438;51.454;6.718;2023-09-08T07:12:05;19.60;99.90
20560;DHT22;10438;51.454;6.718;2023-09-08T07:14:34;19.70;99.90
20560;DHT22;10438;51.454;6.718;2023-09-08T07:17:00;19.90;99.90
20560;DHT22;10438;51.454;6.718;2023-09-08T07:19:26;20.20;99.90
20560;DHT22;10438;51.454;6.718;2023-09-08T07:21:52;20.40;99.90
20560;DHT22;10438;51.454;6.718;2023-09-08T07:24:17;20.70;99.90
20560;DHT22;10438;51.454;6.718;2023-09-08T07:26:43;20.80;99.90
20560;DHT22;10438;51.454;6.718;2023-09-08T07:29:08;21.00;99.90
20560;DHT22;10438;51.454;6.718;2023-09-08T07:31:34;21.20;99.90
20560;DHT22;10438;51.454;6.718;2023-09-08T07:33:59;21.30;99.90
20560;DHT22;10438;51.454;6.718;2023-09-08T07:36:25;21.50;99.90
20560;DHT22;10438;51.454;6.718;2023-09-08T07:38:50;21.70;99.90
20560;DHT22;10438;51.454;6.718;2023-09-08T07:41:16;21.90;99.90
20560;DHT22;10438;51.454;6.718;2023-09-08T07:43:41;22.10;99.90
20560;DHT22;10438;51.454;6.718;2023-09-08T07:46:10;22.30;99.90
20560;DHT22;10438;51.454;6.718;2023-09-08T07:48:35;22.50;99.90
20560;DHT22;10438;51.454;6.718;2023-09-08T07:51:00;22.50;99.90
20560;DHT22;10438;51.454;6.718;2023-09-08T07:53:27;22.60;99.90
20560;DHT22;10438;51.454;6.718;2023-09-08T07:55:52;22.80;99.90
20560;DHT22;10438;51.454;6.718;2023-09-08T07:58:18;22.90;99.90
20560;DHT22;10438;51.454;6.718;2023-09-08T08:00:44;23.20;99.90
20560;DHT22;10438;51.454;6.718;2023-09-08T08:03:09;23.80;99.90
20560;DHT22;10438;51.454;6.718;2023-09-08T08:05:35;24.20;99.90
20560;DHT22;10438;51.454;6.718;2023-09-08T08:08:01;24.60;99.90
20560;DHT22;10438;51.454;6.718;2023-09-08T08:10:26;25.10;99.90
20560;DHT22;10438;51.454;6.718;2023-09-08T08:12:52;25.50;99.90
20560;DHT22;10438;51.454;6.718;2023-09-08T08:15:19;25.70;99.90
20560;DHT22;10438;51.454;6.718;2023-09-08T08:17:48;26.00;99.90
20560;DHT22;10438;51.454;6.718;2023-09-08T08:20:14;26.20;99.90
20560;DHT22;10438;51.454;6.718;2023-09-08T08:22:46;26.00;99.90
20560;DHT22;10438;51.454;6.718;2023-09-08T08:25:12;26.00;99.90
20560;DHT22;10438;51.454;6.718;2023-09-08T08:27:40;25.60;99.90
20560;DHT22;10438;51.454;6.718;2023-09-08T08:30:06;25.30;99.90
20560;DHT22;10438;51.454;6.718;2023-09-08T08:32:33;25.10;99.90
20560;DHT22;10438;51.454;6.718;2023-09-08T08:34:59;24.90;99.90
20560;DHT22;10438;51.454;6.718;2023-09-08T08:37:24;24.90;99.90
20560;DHT22;10438;51.454;6.718;2023-09-08T08:39:50;24.90;99.90
20560;DHT22;10438;51.454;6.718;2023-09-08T08:42:15;25.00;99.90
20560;DHT22;10438;51.454;6.718;2023-09-08T08:44:41;25.00;99.90
20560;DHT22;10438;51.454;6.718;2023-09-08T08:47:08;25.10;99.90
20560;DHT22;10438;51.454;6.718;2023-09-08T08:49:34;25.20;99.90
20560;DHT22;10438;51.454;6.718;2023-09-08T08:52:00;25.30;99.90
20560;DHT22;10438;51.454;6.718;2023-09-08T08:54:29;25.50;99.90
20560;DHT22;10438;51.454;6.718;2023-09-08T08:56:55;25.70;99.90
20560;DHT22;10438;51.454;6.718;2023-09-08T08:59:21;25.70;99.90
20560;DHT22;10438;51.454;6.718;2023-09-08T09:01:47;25.70;99.90
20560;DHT22;10438;51.454;6.718;2023-09-08T09:04:14;25.70;99.90
20560;DHT22;10438;51.454;6.718;2023-09-08T09:06:41;25.90;99.90
20560;DHT22;10438;51.454;6.718;2023-09-08T09:09:06;26.00;99.90
20560;DHT22;10438;51.454;6.718;2023-09-08T09:11:33;26.20;99.90
20560;DHT22;10438;51.454;6.718;2023-09-08T09:13:59;26.40;99.90
20560;DHT22;10438;51.454;6.718;2023-09-08T09:16:25;26.40;99.90
20560;DHT22;10438;51.454;6.718;2023-09-08T09:18:57;26.60;99.90
20560;DHT22;10438;51.454;6.718;2023-09-08T09:21:24;26.50;99.90
20560;DHT22;10438;51.454;6.718;2023-09-08T09:23:49;26.70;99.70
20560;DHT22;10438;51.454;6.718;2023-09-08T09:26:26;26.70;97.00
20560;DHT22;10438;51.454;6.718;2023-09-08T09:28:51;26.90;97.40
20560;DHT22;10438;51.454;6.718;2023-09-08T09:31:23;27.10;98.80
20560;DHT22;10438;51.454;6.718;2023-09-08T09:34:01;27.30;98.00
20560;DHT22;10438;51.454;6.718;2023-09-08T09:36:28;27.70;97.60
20560;DHT22;10438;51.454;6.718;2023-09-08T09:38:58;27.70;92.80
20560;DHT22;10438;51.454;6.718;2023-09-08T09:41:23;27.90;96.70
20560;DHT22;10438;51.454;6.718;2023-09-08T09:43:49;28.10;94.30
20560;DHT22;10438;51.454;6.718;2023-09-08T09:46:15;28.10;90.20
20560;DHT22;10438;51.454;6.718;2023-09-08T09:48:41;28.10;84.80
20560;DHT22;10438;51.454;6.718;2023-09-08T09:51:19;28.10;89.10
20560;DHT22;10438;51.454;6.718;2023-09-08T09:53:45;28.20;89.80
20560;DHT22;10438;51.454;6.718;2023-09-08T09:56:11;28.20;85.90
20560;DHT22;10438;51.454;6.718;2023-09-08T09:58:39;28.30;80.50
20560;DHT22;10438;51.454;6.718;2023-09-08T10:01:05;28.50;80.90
20560;DHT22;10438;51.454;6.718;2023-09-08T10:03:31;28.60;78.80
20560;DHT22;10438;51.454;6.718;2023-09-08T10:05:59;28.40;77.90
20560;DHT22;10438;51.454;6.718;2023-09-08T10:08:25;28.60;75.10
20560;DHT22;10438;51.454;6.718;2023-09-08T10:10:51;28.40;71.10
20560;DHT22;10438;51.454;6.718;2023-09-08T10:13:23;28.40;70.20
20560;DHT22;10438;51.454;6.718;2023-09-08T10:15:50;28.60;71.60
20560;DHT22;10438;51.454;6.718;2023-09-08T10:18:19;28.90;64.50
20560;DHT22;10438;51.454;6.718;2023-09-08T10:20:46;29.00;62.20
20560;DHT22;10438;51.454;6.718;2023-09-08T10:24:21;29.30;62.10
20560;DHT22;10438;51.454;6.718;2023-09-08T10:26:16;29.80;55.90
20560;DHT22;10438;51.454;6.718;2023-09-08T10:28:43;30.40;49.50
20560;DHT22;10438;51.454;6.718;2023-09-08T10:31:10;30.70;46.90
20560;DHT22;10438;51.454;6.718;2023-09-08T10:33:37;31.10;39.50
20560;DHT22;10438;51.454;6.718;2023-09-08T10:36:04;31.50;30.00
20560;DHT22;10438;51.454;6.718;2023-09-08T10:38:34;31.50;31.40
20560;DHT22;10438;51.454;6.718;2023-09-08T10:43:40;31.70;24.30
20560;DHT22;10438;51.454;6.718;2023-09-08T10:46:10;31.70;27.30
20560;DHT22;10438;51.454;6.718;2023-09-08T10:48:43;31.80;24.20
20560;DHT22;10438;51.454;6.718;2023-09-08T10:51:13;31.40;23.70
20560;DHT22;10438;51.454;6.718;2023-09-08T10:53:40;31.50;22.00
20560;DHT22;10438;51.454;6.718;2023-09-08T10:56:05;31.50;21.80
20560;DHT22;10438;51.454;6.718;2023-09-08T11:01:00;31.70;28.80
20560;DHT22;10438;51.454;6.718;2023-09-08T11:06:05;32.00;15.50
20560;DHT22;10438;51.454;6.718;2023-09-08T11:08:37;31.80;16.90
20560;DHT22;10438;51.454;6.718;2023-09-08T11:11:03;31.80;17.90
20560;DHT22;10438;51.454;6.718;2023-09-08T11:13:29;32.10;18.80
20560;DHT22;10438;51.454;6.718;2023-09-08T11:15:55;32.20;15.90
20560;DHT22;10438;51.454;6.718;2023-09-08T11:18:30;32.30;15.80
20560;DHT22;10438;51.454;6.718;2023-09-08T11:20:56;32.20;12.80
20560;DHT22;10438;51.454;6.718;2023-09-08T11:23:23;32.30;13.40
20560;DHT22;10438;51.454;6.718;2023-09-08T11:25:51;32.30;15.10
20560;DHT22;10438;51.454;6.718;2023-09-08T11:28:17;32.50;14.40
20560;DHT22;10438;51.454;6.718;2023-09-08T11:30:45;32.50;15.00
20560;DHT22;10438;51.454;6.718;2023-09-08T11:33:15;32.70;10.70
20560;DHT22;10438;51.454;6.718;2023-09-08T11:35:41;32.60;11.20
20560;DHT22;10438;51.454;6.718;2023-09-08T11:38:10;32.60;9.60
20560;DHT22;10438;51.454;6.718;2023-09-08T11:40:36;32.60;10.30
20560;DHT22;10438;51.454;6.718;2023-09-08T11:43:02;32.50;11.90
20560;DHT22;10438;51.454;6.718;2023-09-08T11:45:28;32.30;14.20
20560;DHT22;10438;51.454;6.718;2023-09-08T11:47:55;32.60;15.10
20560;DHT22;10438;51.454;6.718;2023-09-08T11:50:21;32.70;9.90
20560;DHT22;10438;51.454;6.718;2023-09-08T11:52:50;32.80;11.90
20560;DHT22;10438;51.454;6.718;2023-09-08T11:55:16;32.90;11.20
20560;DHT22;10438;51.454;6.718;2023-09-08T11:57:42;33.00;9.70
20560;DHT22;10438;51.454;6.718;2023-09-08T12:00:10;33.00;10.10
20560;DHT22;10438;51.454;6.718;2023-09-08T12:02:40;33.10;9.70
20560;DHT22;10438;51.454;6.718;2023-09-08T12:05:10;32.90;9.00
20560;DHT22;10438;51.454;6.718;2023-09-08T12:07:37;33.00;10.60
20560;DHT22;10438;51.454;6.718;2023-09-08T12:10:10;32.90;12.00
20560;DHT22;10438;51.454;6.718;2023-09-08T12:12:42;33.00;10.40
20560;DHT22;10438;51.454;6.718;2023-09-08T12:15:09;33.00;10.50
20560;DHT22;10438;51.454;6.718;2023-09-08T12:17:49;32.80;9.40
20560;DHT22;10438;51.454;6.718;2023-09-08T12:20:15;32.90;10.60
20560;DHT22;10438;51.454;6.718;2023-09-08T12:22:48;33.10;8.00
20560;DHT22;10438;51.454;6.718;2023-09-08T12:25:14;33.20;10.00
20560;DHT22;10438;51.454;6.718;2023-09-08T12:27:41;33.30;10.90
20560;DHT22;10438;51.454;6.718;2023-09-08T12:30:07;33.60;9.80
20560;DHT22;10438;51.454;6.718;2023-09-08T12:32:34;33.50;7.30
20560;DHT22;10438;51.454;6.718;2023-09-08T12:35:03;33.20;6.70
20560;DHT22;10438;51.454;6.718;2023-09-08T12:37:29;33.00;9.40
20560;DHT22;10438;51.454;6.718;2023-09-08T12:39:56;32.90;16.20
20560;DHT22;10438;51.454;6.718;2023-09-08T12:42:22;32.80;7.90
20560;DHT22;10438;51.454;6.718;2023-09-08T12:44:51;32.70;9.70
20560;DHT22;10438;51.454;6.718;2023-09-08T12:47:17;32.40;11.60
20560;DHT22;10438;51.454;6.718;2023-09-08T12:49:42;32.50;10.10
20560;DHT22;10438;51.454;6.718;2023-09-08T12:52:08;32.70;12.40
20560;DHT22;10438;51.454;6.718;2023-09-08T12:54:35;32.50;10.40
20560;DHT22;10438;51.454;6.718;2023-09-08T12:57:00;32.70;9.30
20560;DHT22;10438;51.454;6.718;2023-09-08T12:59:26;32.70;15.50
20560;DHT22;10438;51.454;6.718;2023-09-08T13:01:52;32.80;8.20
20560;DHT22;10438;51.454;6.718;2023-09-08T13:04:18;33.00;11.30
20560;DHT22;10438;51.454;6.718;2023-09-08T13:06:44;33.00;13.50
20560;DHT22;10438;51.454;6.718;2023-09-08T13:09:10;33.20;6.80
20560;DHT22;10438;51.454;6.718;2023-09-08T13:11:36;33.50;5.90
20560;DHT22;10438;51.454;6.718;2023-09-08T13:14:02;33.70;2.60
20560;DHT22;10438;51.454;6.718;2023-09-08T13:16:27;33.70;2.10
20560;DHT22;10438;51.454;6.718;2023-09-08T13:18:53;33.90;1.80
20560;DHT22;10438;51.454;6.718;2023-09-08T13:21:18;33.80;2.30
20560;DHT22;10438;51.454;6.718;2023-09-08T13:23:44;33.80;2.90
20560;DHT22;10438;51.454;6.718;2023-09-08T13:26:09;34.10;2.70
20560;DHT22;10438;51.454;6.718;2023-09-08T13:28:35;34.40;2.70
20560;DHT22;10438;51.454;6.718;2023-09-08T13:31:01;34.50;1.00
20560;DHT22;10438;51.454;6.718;2023-09-08T13:33:26;34.50;1.00
20560;DHT22;10438;51.454;6.718;2023-09-08T13:35:52;34.50;1.00
20560;DHT22;10438;51.454;6.718;2023-09-08T13:38:18;34.00;1.00
20560;DHT22;10438;51.454;6.718;2023-09-08T13:40:43;34.10;1.00
20560;DHT22;10438;51.454;6.718;2023-09-08T13:43:09;34.40;1.20
20560;DHT22;10438;51.454;6.718;2023-09-08T13:45:36;34.70;1.00
20560;DHT22;10438;51.454;6.718;2023-09-08T13:48:02;34.50;1.00
20560;DHT22;10438;51.454;6.718;2023-09-08T13:50:29;34.70;1.00
20560;DHT22;10438;51.454;6.718;2023-09-08T13:52:55;34.70;1.00
20560;DHT22;10438;51.454;6.718;2023-09-08T13:55:20;35.10;1.00
20560;DHT22;10438;51.454;6.718;2023-09-08T13:57:49;35.00;1.00
20560;DHT22;10438;51.454;6.718;2023-09-08T14:00:15;34.60;1.00
20560;DHT22;10438;51.454;6.718;2023-09-08T14:02:41;34.50;1.00
20560;DHT22;10438;51.454;6.718;2023-09-08T14:05:07;34.10;1.00
20560;DHT22;10438;51.454;6.718;2023-09-08T14:07:32;33.70;1.00
20560;DHT22;10438;51.454;6.718;2023-09-08T14:09:58;33.20;1.00
20560;DHT22;10438;51.454;6.718;2023-09-08T14:12:24;32.80;1.00
20560;DHT22;10438;51.454;6.718;2023-09-08T14:14:49;32.20;1.00
20560;DHT22;10438;51.454;6.718;2023-09-08T14:17:15;32.00;1.00
20560;DHT22;10438;51.454;6.718;2023-09-08T14:19:40;31.80;1.00
20560;DHT22;10438;51.454;6.718;2023-09-08T14:22:06;31.50;2.80
20560;DHT22;10438;51.454;6.718;2023-09-08T14:24:31;31.50;8.50
20560;DHT22;10438;51.454;6.718;2023-09-08T14:26:57;31.70;6.20
20560;DHT22;10438;51.454;6.718;2023-09-08T14:29:22;31.70;4.10
20560;DHT22;10438;51.454;6.718;2023-09-08T14:31:49;31.90;4.10
20560;DHT22;10438;51.454;6.718;2023-09-08T14:34:14;32.40;1.50
20560;DHT22;10438;51.454;6.718;2023-09-08T14:36:40;33.20;1.00
20560;DHT22;10438;51.454;6.718;2023-09-08T14:39:05;33.20;1.00
20560;DHT22;10438;51.454;6.718;2023-09-08T14:41:31;33.20;1.00
20560;DHT22;10438;51.454;6.718;2023-09-08T14:43:56;33.60;1.00
20560;DHT22;10438;51.454;6.718;2023-09-08T14:46:22;34.00;1.00
20560;DHT22;10438;51.454;6.718;2023-09-08T14:48:47;34.70;1.00
20560;DHT22;10438;51.454;6.718;2023-09-08T14:51:13;34.80;1.00
20560;DHT22;10438;51.454;6.718;2023-09-08T14:53:39;35.50;1.00
20560;DHT22;10438;51.454;6.718;2023-09-08T14:56:04;36.10;1.00
20560;DHT22;10438;51.454;6.718;2023-09-08T14:58:30;36.30;1.00
20560;DHT22;10438;51.454;6.718;2023-09-08T15:01:03;36.30;1.00
20560;DHT22;10438;51.454;6.718;2023-09-08T15:03:33;37.40;1.00
20560;DHT22;10438;51.454;6.718;2023-09-08T15:05:58;37.70;1.00
20560;DHT22;10438;51.454;6.718;2023-09-08T15:08:24;37.40;1.00
20560;DHT22;10438;51.454;6.718;2023-09-08T15:10:50;37.80;1.00
20560;DHT22;10438;51.454;6.718;2023-09-08T15:13:15;37.20;1.00
20560;DHT22;10438;51.454;6.718;2023-09-08T15:15:41;37.50;1.00
20560;DHT22;10438;51.454;6.718;2023-09-08T15:18:06;37.60;1.00
20560;DHT22;10438;51.454;6.718;2023-09-08T15:20:32;37.20;1.00
20560;DHT22;10438;51.454;6.718;2023-09-08T15:22:57;36.70;1.00
20560;DHT22;10438;51.454;6.718;2023-09-08T15:25:23;36.20;1.00
20560;DHT22;10438;51.454;6.718;2023-09-08T15:27:48;35.50;1.00
20560;DHT22;10438;51.454;6.718;2023-09-08T15:30:14;34.80;1.00
20560;DHT22;10438;51.454;6.718;2023-09-08T15:32:40;34.20;1.00
20560;DHT22;10438;51.454;6.718;2023-09-08T15:35:07;33.50;1.00
20560;DHT22;10438;51.454;6.718;2023-09-08T15:37:33;32.90;1.00
20560;DHT22;10438;51.454;6.718;2023-09-08T15:39:59;32.30;1.00